createdAt,value
2023-01-05T00:01:55.664Z,20.10
2023-01-05T00:04:25.894Z,20.10
2023-01-05T00:06:54.969Z,20.10
2023-01-05T00:09:23.840Z,20.10
2023-01-05T00:12:12.258Z,20.10
2023-01-05T00:15:00.746Z,20.10
2023-01-05T00:17:49.117Z,20.10
2023-01-05T00:20:40.479Z,20.10
2023-01-05T00:23:10.447Z,20.10
2023-01-05T00:25:42.147Z,20.00
2023-01-05T00:28:11.081Z,20.00
2023-01-05T00:30:43.257Z,20.00
2023-01-05T00:33:15.180Z,20.00
2023-01-05T00:35:44.303Z,20.10
2023-01-05T00:38:13.409Z,20.10
2023-01-05T00:40:42.356Z,20.10
2023-01-05T00:43:11.238Z,20.10
2023-01-05T00:45:40.192Z,20.00
2023-01-05T00:48:08.992Z,20.00
2023-01-05T00:50:37.717Z,20.00
2023-01-05T00:53:06.489Z,20.00
2023-01-05T00:55:35.273Z,20.00
2023-01-05T00:58:04.116Z,20.10
2023-01-05T01:00:32.984Z,20.20
2023-01-05T01:03:01.819Z,20.20
2023-01-05T01:05:30.569Z,20.30
2023-01-05T01:12:39.269Z,20.40
2023-01-05T01:15:08.092Z,20.40
2023-01-05T01:17:37.022Z,20.50
2023-01-05T01:20:06.300Z,20.50
2023-01-05T01:22:35.058Z,20.50
2023-01-05T01:25:03.971Z,20.60
2023-01-05T01:27:33.947Z,20.70
2023-01-05T01:30:03.095Z,20.70
2023-01-05T01:32:31.942Z,20.80
2023-01-05T01:35:01.022Z,20.90
2023-01-05T01:37:29.876Z,20.90
2023-01-05T01:39:58.708Z,21.00
2023-01-05T01:42:27.729Z,21.10
2023-01-05T01:45:00.975Z,21.10
2023-01-05T01:47:40.047Z,21.10
2023-01-05T01:50:38.544Z,21.20
2023-01-05T01:53:14.767Z,21.20
2023-01-05T01:55:45.639Z,21.30
2023-01-05T01:58:19.014Z,21.40
2023-01-05T02:00:48.858Z,21.40
2023-01-05T02:03:17.960Z,21.50
2023-01-05T02:05:46.880Z,21.50
2023-01-05T02:08:26.412Z,21.60
2023-01-05T02:11:18.898Z,21.60
2023-01-05T02:13:53.299Z,21.60
2023-01-05T02:16:52.629Z,21.70
2023-01-05T02:20:00.816Z,21.70
2023-01-05T02:22:57.154Z,21.80
2023-01-05T02:25:39.304Z,21.90
2023-01-05T02:28:22.522Z,21.90
2023-01-05T02:30:53.331Z,21.90
2023-01-05T02:33:26.582Z,22.00
2023-01-05T02:36:15.473Z,22.00
2023-01-05T02:39:05.966Z,22.10
2023-01-05T02:41:43.558Z,22.20
2023-01-05T02:44:16.644Z,22.20
2023-01-05T02:46:45.314Z,22.30
2023-01-05T02:49:18.385Z,22.30
2023-01-05T02:51:51.902Z,22.40
2023-01-05T02:54:28.994Z,22.40
2023-01-05T02:57:06.324Z,22.40
2023-01-05T02:59:44.759Z,22.50
2023-01-05T03:02:26.269Z,22.60
2023-01-05T03:05:05.579Z,22.70
2023-01-05T03:07:42.066Z,22.70
2023-01-05T03:10:33.173Z,22.80
2023-01-05T03:13:26.582Z,22.80
2023-01-05T03:16:03.057Z,22.90
2023-01-05T03:18:34.707Z,23.00
2023-01-05T03:21:03.800Z,23.10
2023-01-05T03:23:52.449Z,23.20
2023-01-05T03:26:40.994Z,23.40
2023-01-05T03:29:29.460Z,23.40
2023-01-05T03:32:38.460Z,23.50
2023-01-05T03:35:34.133Z,23.70
2023-01-05T03:38:13.426Z,23.70
2023-01-05T03:40:47.363Z,23.80
2023-01-05T03:43:16.833Z,23.90
2023-01-05T03:45:52.218Z,23.90
2023-01-05T03:48:22.276Z,24.00
2023-01-05T03:50:51.342Z,24.10
2023-01-05T03:53:20.400Z,24.20
2023-01-05T03:55:49.388Z,24.30
2023-01-05T03:58:18.160Z,24.30
2023-01-05T04:00:46.889Z,24.40
2023-01-05T04:03:16.057Z,24.40
2023-01-05T04:05:45.319Z,24.50
2023-01-05T04:08:14.310Z,24.50
2023-01-05T04:10:43.179Z,24.60
2023-01-05T04:13:12.029Z,24.60
2023-01-05T04:15:45.279Z,24.60
2023-01-05T04:18:14.131Z,24.70
2023-01-05T04:20:43.134Z,24.80
2023-01-05T04:23:11.908Z,24.90
2023-01-05T04:25:40.770Z,24.90
2023-01-05T04:28:09.601Z,25.00
2023-01-05T04:30:38.522Z,25.00
2023-01-05T04:33:07.417Z,25.00
2023-01-05T04:35:36.337Z,25.10
2023-01-05T04:38:05.195Z,25.20
2023-01-05T04:40:36.698Z,25.20
2023-01-05T04:43:06.260Z,25.20
2023-01-05T04:45:35.600Z,25.30
2023-01-05T04:48:04.515Z,25.30
2023-01-05T04:50:33.459Z,25.30
2023-01-05T04:53:02.326Z,25.40
2023-01-05T04:55:31.268Z,25.50
2023-01-05T04:58:00.129Z,25.50
2023-01-05T05:00:29.709Z,25.60
2023-01-05T05:02:58.787Z,25.60
2023-01-05T05:05:29.980Z,25.70
2023-01-05T05:07:58.708Z,25.70
2023-01-05T05:10:27.468Z,25.70
2023-01-05T05:12:56.286Z,25.70
2023-01-05T05:15:25.439Z,25.80
2023-01-05T05:17:54.213Z,25.80
2023-01-05T05:20:23.138Z,25.90
2023-01-05T05:22:51.952Z,25.90
2023-01-05T05:25:20.799Z,26.00
2023-01-05T05:27:49.851Z,26.00
2023-01-05T05:30:18.848Z,26.10
2023-01-05T05:32:47.679Z,26.10
2023-01-05T05:35:16.550Z,26.20
2023-01-05T05:37:50.045Z,26.20
2023-01-05T05:40:21.700Z,26.30
2023-01-05T05:42:50.583Z,26.30
2023-01-05T05:45:19.733Z,26.40
2023-01-05T05:47:48.579Z,26.40
2023-01-05T05:50:17.377Z,26.40
2023-01-05T05:52:46.342Z,26.40
2023-01-05T05:55:15.341Z,26.50
2023-01-05T05:57:44.065Z,26.40
2023-01-05T06:00:13.533Z,26.40
2023-01-05T06:02:42.512Z,26.40
2023-01-05T06:05:11.592Z,26.40
2023-01-05T06:07:40.795Z,26.40
2023-01-05T06:10:10.236Z,26.50
2023-01-05T06:12:39.417Z,26.50
2023-01-05T06:15:09.239Z,26.50
2023-01-05T06:17:38.118Z,26.60
2023-01-05T06:20:07.810Z,26.70
2023-01-05T06:22:36.692Z,26.70
2023-01-05T06:25:06.296Z,26.80
2023-01-05T06:27:35.189Z,26.80
2023-01-05T06:30:04.659Z,26.90
2023-01-05T06:32:33.515Z,26.90
2023-01-05T06:35:02.395Z,26.90
2023-01-05T06:37:31.262Z,26.90
2023-01-05T06:40:01.081Z,27.00
2023-01-05T06:42:30.037Z,26.90
2023-01-05T06:44:59.014Z,26.90
2023-01-05T06:47:30.761Z,26.90
2023-01-05T06:49:59.816Z,26.90
2023-01-05T06:52:28.647Z,26.90
2023-01-05T06:54:57.560Z,27.00
2023-01-05T06:57:26.563Z,27.00
2023-01-05T06:59:55.452Z,27.10
2023-01-05T07:02:24.568Z,27.10
2023-01-05T07:04:53.513Z,27.20
2023-01-05T07:07:22.539Z,27.20
2023-01-05T07:09:52.349Z,27.20
2023-01-05T07:12:21.301Z,27.20
2023-01-05T07:14:57.323Z,27.30
2023-01-05T07:17:27.060Z,27.20
2023-01-05T07:19:55.925Z,27.20
2023-01-05T07:22:24.814Z,27.10
2023-01-05T07:24:53.590Z,27.10
2023-01-05T07:27:22.466Z,27.10
2023-01-05T07:29:51.401Z,27.20
2023-01-05T07:32:20.315Z,27.20
2023-01-05T07:34:55.507Z,27.20
2023-01-05T07:37:26.018Z,27.30
2023-01-05T07:39:56.822Z,27.30
2023-01-05T07:42:27.009Z,27.30
2023-01-05T07:44:55.887Z,27.30
2023-01-05T07:47:24.800Z,27.30
2023-01-05T07:49:53.760Z,27.30
2023-01-05T07:52:22.804Z,27.30
2023-01-05T07:54:51.602Z,27.30
2023-01-05T07:57:20.417Z,27.40
2023-01-05T07:59:49.411Z,27.40
2023-01-05T08:02:18.996Z,27.40
2023-01-05T08:04:48.947Z,27.40
2023-01-05T08:07:17.927Z,27.40
2023-01-05T08:10:06.310Z,27.50
2023-01-05T08:12:56.048Z,27.60
2023-01-05T08:15:25.165Z,27.50
2023-01-05T08:17:54.105Z,27.50
2023-01-05T08:20:23.220Z,27.50
2023-01-05T08:22:53.599Z,27.50
2023-01-05T08:25:22.538Z,27.60
2023-01-05T08:27:52.722Z,27.60
2023-01-05T08:30:23.307Z,27.60
2023-01-05T08:32:52.321Z,27.60
2023-01-05T08:35:21.160Z,27.60
2023-01-05T08:37:50.036Z,27.50
2023-01-05T08:40:19.090Z,27.50
2023-01-05T08:42:49.437Z,27.50
2023-01-05T08:45:20.290Z,27.50
2023-01-05T08:47:49.117Z,27.60
2023-01-05T08:50:19.427Z,27.60
2023-01-05T08:52:51.571Z,27.70
2023-01-05T08:55:20.563Z,27.70
2023-01-05T08:57:49.507Z,27.60
2023-01-05T09:00:19.078Z,27.60
2023-01-05T09:02:48.021Z,27.60
2023-01-05T09:05:17.428Z,27.50
2023-01-05T09:07:46.269Z,27.40
2023-01-05T09:10:15.139Z,27.40
2023-01-05T09:12:44.104Z,27.40
2023-01-05T09:15:14.035Z,27.50
2023-01-05T09:17:42.985Z,27.50
2023-01-05T09:20:12.115Z,27.50
2023-01-05T09:22:40.900Z,27.50
2023-01-05T09:25:10.194Z,27.50
2023-01-05T09:27:39.408Z,27.50
2023-01-05T09:30:09.088Z,27.50
2023-01-05T09:32:38.969Z,27.60
2023-01-05T09:35:12.619Z,27.60
2023-01-05T09:37:41.519Z,27.60
2023-01-05T09:40:11.533Z,27.60
2023-01-05T09:42:45.078Z,27.60
2023-01-05T09:49:24.399Z,27.60
2023-01-05T09:51:59.065Z,27.60
2023-01-05T09:54:34.224Z,27.60
2023-01-05T09:57:11.281Z,27.60
2023-01-05T09:59:44.382Z,27.50
2023-01-05T10:02:20.391Z,27.50
2023-01-05T10:04:51.230Z,27.50
2023-01-05T10:07:43.383Z,27.50
2023-01-05T10:10:23.492Z,27.50
2023-01-05T10:13:07.904Z,27.40
2023-01-05T10:15:38.815Z,27.40
2023-01-05T10:18:14.281Z,27.40
2023-01-05T10:20:56.818Z,27.30
2023-01-05T10:23:26.415Z,27.30
2023-01-05T10:26:14.331Z,27.30
2023-01-05T10:28:56.759Z,27.30
2023-01-05T10:31:30.836Z,27.20
2023-01-05T10:34:25.757Z,27.10
2023-01-05T10:37:30.242Z,27.10
2023-01-05T10:40:38.309Z,27.00
2023-01-05T10:43:34.669Z,27.00
2023-01-05T10:46:31.102Z,27.00
2023-01-05T10:48:54.128Z,26.90
2023-01-05T10:51:23.665Z,26.90
2023-01-05T10:53:52.543Z,26.90
2023-01-05T10:56:30.556Z,26.80
2023-01-05T10:59:16.442Z,26.80
2023-01-05T11:01:48.663Z,26.70
2023-01-05T11:04:33.349Z,26.70
2023-01-05T11:07:08.793Z,26.70
2023-01-05T11:09:42.863Z,26.60
2023-01-05T11:12:21.457Z,26.60
2023-01-05T11:14:58.698Z,26.50
2023-01-05T11:17:30.790Z,26.50
2023-01-05T11:20:00.048Z,26.40
2023-01-05T11:22:30.745Z,26.30
2023-01-05T11:25:34.607Z,26.30
2023-01-05T11:28:19.663Z,26.30
2023-01-05T11:31:01.225Z,26.20
2023-01-05T11:33:32.397Z,26.20
2023-01-05T11:36:02.493Z,26.10
2023-01-05T11:38:32.947Z,26.10
2023-01-05T11:41:02.857Z,26.00
2023-01-05T11:43:34.066Z,26.00
2023-01-05T11:46:05.941Z,25.90
2023-01-05T11:48:36.874Z,25.90
2023-01-05T11:51:05.927Z,25.90
2023-01-05T11:53:36.687Z,25.80
2023-01-05T11:56:16.574Z,25.80
2023-01-05T11:58:48.498Z,25.80
2023-01-05T12:01:56.584Z,25.70
2023-01-05T12:05:04.845Z,25.60
2023-01-05T12:07:38.769Z,25.60
2023-01-05T12:10:23.539Z,25.60
2023-01-05T12:13:31.587Z,25.60
2023-01-05T12:16:08.987Z,25.50
2023-01-05T12:18:49.456Z,25.50
2023-01-05T12:21:26.657Z,25.40
2023-01-05T12:24:22.985Z,25.50
2023-01-05T12:27:15.400Z,25.40
2023-01-05T12:34:01.306Z,25.30
2023-01-05T12:36:09.202Z,25.30
2023-01-05T12:38:43.315Z,25.30
2023-01-05T12:41:19.063Z,25.30
2023-01-05T12:43:49.834Z,25.20
2023-01-05T12:46:38.771Z,25.20
2023-01-05T12:49:18.299Z,25.20
2023-01-05T12:51:51.639Z,25.10
2023-01-05T12:54:31.993Z,25.10
2023-01-05T12:57:09.197Z,25.10
2023-01-05T12:59:50.072Z,25.00
2023-01-05T13:02:24.417Z,25.00
2023-01-05T13:04:59.166Z,25.00
2023-01-05T13:07:42.941Z,25.00
2023-01-05T13:10:20.226Z,25.00
2023-01-05T13:12:54.670Z,25.00
2023-01-05T13:15:30.173Z,24.90
2023-01-05T13:18:02.924Z,24.90
2023-01-05T13:20:51.870Z,24.90
2023-01-05T13:23:27.662Z,24.80
2023-01-05T13:26:00.061Z,24.80
2023-01-05T13:28:31.328Z,24.80
2023-01-05T13:31:37.284Z,24.80
2023-01-05T13:34:26.271Z,24.70
2023-01-05T13:37:16.215Z,24.70
2023-01-05T13:40:08.443Z,24.70
2023-01-05T13:43:03.634Z,24.70
2023-01-05T13:46:00.214Z,24.60
2023-01-05T13:49:05.081Z,24.60
2023-01-05T13:51:57.638Z,24.60
2023-01-05T13:54:49.518Z,24.60
2023-01-05T13:57:28.246Z,24.60
2023-01-05T14:00:11.866Z,24.60
2023-01-05T14:02:45.432Z,24.50
2023-01-05T14:05:35.405Z,24.50
2023-01-05T14:08:07.461Z,24.50
2023-01-05T14:10:36.419Z,24.50
2023-01-05T14:13:07.886Z,24.40
2023-01-05T14:15:41.145Z,24.40
2023-01-05T14:18:34.633Z,24.40
2023-01-05T14:21:11.126Z,24.30
2023-01-05T14:23:40.721Z,24.30
2023-01-05T14:26:10.714Z,24.30
2023-01-05T14:28:42.730Z,24.30
2023-01-05T14:31:14.903Z,24.20
2023-01-05T14:33:59.705Z,24.20
2023-01-05T14:36:36.374Z,24.20
2023-01-05T14:39:26.754Z,24.10
2023-01-05T14:42:05.029Z,24.10
2023-01-05T14:44:46.438Z,24.00
2023-01-05T14:47:15.755Z,24.00
2023-01-05T14:49:55.145Z,24.00
2023-01-05T14:53:03.286Z,24.00
2023-01-05T14:55:38.689Z,24.00
2023-01-05T14:58:16.308Z,24.00
2023-01-05T15:00:54.106Z,24.00
2023-01-05T15:03:47.664Z,24.00
2023-01-05T15:06:28.077Z,23.90
2023-01-05T15:09:17.892Z,23.90
2023-01-05T15:11:58.681Z,23.80
2023-01-05T15:15:07.177Z,23.80
2023-01-05T15:18:03.079Z,23.80
2023-01-05T15:21:11.191Z,23.70
2023-01-05T15:24:19.211Z,23.70
2023-01-05T15:27:04.521Z,23.70
2023-01-05T15:30:01.133Z,23.70
2023-01-05T15:32:36.118Z,23.60
2023-01-05T15:35:21.805Z,23.60
2023-01-05T15:37:53.314Z,23.50
2023-01-05T15:40:26.549Z,23.50
2023-01-05T15:43:00.521Z,23.40
2023-01-05T15:45:44.040Z,23.40
2023-01-05T15:48:18.051Z,23.40
2023-01-05T15:50:52.774Z,23.40
2023-01-05T15:53:31.400Z,23.40
2023-01-05T15:56:01.740Z,23.40
2023-01-05T15:58:33.354Z,23.30
2023-01-05T16:01:18.813Z,23.30
2023-01-05T16:03:49.864Z,23.20
2023-01-05T16:06:21.342Z,23.20
2023-01-05T16:08:53.650Z,23.20
2023-01-05T16:11:29.519Z,23.20
2023-01-05T16:14:06.054Z,23.20
2023-01-05T16:16:55.638Z,23.20
2023-01-05T16:19:58.239Z,23.10
2023-01-05T16:22:34.371Z,23.10
2023-01-05T16:25:23.777Z,23.10
2023-01-05T16:27:59.770Z,23.10
2023-01-05T16:30:32.173Z,23.10
2023-01-05T16:33:21.071Z,23.00
2023-01-05T16:35:53.977Z,23.00
2023-01-05T16:38:31.060Z,22.90
2023-01-05T16:41:10.082Z,22.90
2023-01-05T16:43:43.490Z,22.90
2023-01-05T16:46:21.431Z,22.80
2023-01-05T16:48:52.351Z,22.80
2023-01-05T16:51:37.427Z,22.70
2023-01-05T16:54:37.908Z,22.70
2023-01-05T16:57:36.883Z,22.70
2023-01-05T17:04:01.523Z,22.70
2023-01-05T17:06:32.858Z,22.60
2023-01-05T17:09:03.995Z,22.60
2023-01-05T17:11:37.782Z,22.60
2023-01-05T17:14:08.907Z,22.60
2023-01-05T17:16:37.708Z,22.60
2023-01-05T17:19:22.548Z,22.70
2023-01-05T17:21:57.226Z,22.60
2023-01-05T17:24:28.776Z,22.60
2023-01-05T17:26:57.960Z,22.60
2023-01-05T17:29:31.850Z,22.60
2023-01-05T17:32:00.952Z,22.60
2023-01-05T17:34:29.719Z,22.60
2023-01-05T17:37:01.983Z,22.60
2023-01-05T17:42:24.065Z,22.50
2023-01-05T17:44:53.024Z,22.50
2023-01-05T17:47:21.793Z,22.50
2023-01-05T17:49:50.557Z,22.40
2023-01-05T17:52:19.342Z,22.30
2023-01-05T17:54:48.200Z,22.30
2023-01-05T17:57:17.055Z,22.30
2023-01-05T17:59:46.929Z,22.30
2023-01-05T18:02:15.799Z,22.20
2023-01-05T18:04:44.629Z,22.20
2023-01-05T18:07:13.476Z,22.20
2023-01-05T18:09:42.320Z,22.10
2023-01-05T18:12:11.245Z,22.10
2023-01-05T18:14:40.168Z,22.10
2023-01-05T18:17:08.958Z,22.10
2023-01-05T18:19:37.787Z,22.10
2023-01-05T18:22:06.840Z,22.10
2023-01-05T18:24:35.660Z,22.10
2023-01-05T18:27:08.110Z,22.10
2023-01-05T18:29:37.917Z,22.00
2023-01-05T18:32:07.396Z,22.00
2023-01-05T18:34:36.363Z,22.10
2023-01-05T18:37:06.673Z,22.10
2023-01-05T18:39:39.620Z,22.10
2023-01-05T18:42:08.484Z,22.10
2023-01-05T18:44:37.321Z,22.00
2023-01-05T18:47:06.414Z,22.00
2023-01-05T18:49:35.219Z,22.00
2023-01-05T18:52:04.190Z,22.00
2023-01-05T18:54:33.107Z,22.00
2023-01-05T18:57:01.862Z,22.00
2023-01-05T18:59:30.732Z,22.00
2023-01-05T19:01:59.714Z,22.00
2023-01-05T19:04:29.011Z,22.00
2023-01-05T19:06:57.829Z,22.00
2023-01-05T19:09:26.654Z,22.00
2023-01-05T19:11:55.379Z,22.00
2023-01-05T19:14:24.131Z,21.90
2023-01-05T19:16:53.325Z,21.90
2023-01-05T19:19:22.556Z,21.90
2023-01-05T19:21:53.334Z,21.90
2023-01-05T19:24:25.222Z,21.90
2023-01-05T19:26:54.682Z,21.90
2023-01-05T19:29:25.412Z,21.90
2023-01-05T19:31:54.249Z,21.80
2023-01-05T19:34:23.071Z,21.80
2023-01-05T19:36:51.744Z,21.80
2023-01-05T19:39:22.902Z,21.80
2023-01-05T19:41:53.579Z,21.70
2023-01-05T19:44:23.345Z,21.70
2023-01-05T19:46:54.444Z,21.60
2023-01-05T19:49:25.970Z,21.60
2023-01-05T19:51:55.449Z,21.50
2023-01-05T19:54:26.299Z,21.50
2023-01-05T19:56:56.113Z,21.50
2023-01-05T19:59:33.953Z,21.50
2023-01-05T20:02:04.399Z,21.50
2023-01-05T20:04:33.858Z,21.50
2023-01-05T20:07:04.263Z,21.40
2023-01-05T20:09:33.801Z,21.40
2023-01-05T20:12:13.918Z,21.40
2023-01-05T20:14:43.757Z,21.40
2023-01-05T20:17:14.246Z,21.30
2023-01-05T20:19:43.185Z,21.30
2023-01-05T20:22:14.813Z,21.20
2023-01-05T20:24:44.255Z,21.10
2023-01-05T20:27:15.530Z,21.10
2023-01-05T20:29:45.085Z,21.00
2023-01-05T20:32:18.046Z,21.10
2023-01-05T20:34:47.370Z,21.00
2023-01-05T20:37:16.173Z,21.10
2023-01-05T20:39:45.264Z,21.00
2023-01-05T20:42:15.137Z,20.90
2023-01-05T20:44:46.597Z,20.90
2023-01-05T20:47:16.427Z,20.80
2023-01-05T20:49:47.309Z,20.80
2023-01-05T20:52:18.781Z,20.70
2023-01-05T20:54:47.612Z,20.70
2023-01-05T20:57:16.423Z,20.70
2023-01-05T20:59:45.290Z,20.60
2023-01-05T21:02:23.491Z,20.60
2023-01-05T21:04:54.669Z,20.50
2023-01-05T21:07:23.590Z,20.40
2023-01-05T21:09:53.675Z,20.50
2023-01-05T21:12:22.774Z,20.40
2023-01-05T21:14:51.557Z,20.40
2023-01-05T21:17:20.497Z,20.50
2023-01-05T21:19:49.287Z,20.50
2023-01-05T21:22:18.106Z,20.50
2023-01-05T21:24:46.923Z,20.50
2023-01-05T21:27:15.898Z,20.60
2023-01-05T21:29:44.783Z,20.70
2023-01-05T21:32:13.647Z,20.70
2023-01-05T21:34:42.511Z,20.70
2023-01-05T21:37:11.290Z,20.70
2023-01-05T21:39:40.065Z,20.80
2023-01-05T21:42:28.522Z,20.70
2023-01-05T21:44:57.351Z,20.70
2023-01-05T21:47:26.116Z,20.70
2023-01-05T21:49:54.916Z,20.70
2023-01-05T21:52:43.327Z,20.60
2023-01-05T21:55:31.904Z,20.60
2023-01-05T21:58:00.759Z,20.60
2023-01-05T22:00:32.660Z,20.50
2023-01-05T22:03:01.574Z,20.60
2023-01-05T22:05:30.333Z,20.60
2023-01-05T22:07:59.324Z,20.50
2023-01-05T22:10:28.083Z,20.50
2023-01-05T22:12:56.732Z,20.50
2023-01-05T22:15:25.599Z,20.50
2023-01-05T22:17:54.388Z,20.40
2023-01-05T22:20:23.171Z,20.50
2023-01-05T22:22:51.958Z,20.50
2023-01-05T22:25:21.047Z,20.50
2023-01-05T22:27:49.899Z,20.50
2023-01-05T22:30:19.118Z,20.50
2023-01-05T22:32:49.952Z,20.50
2023-01-05T22:35:18.724Z,20.50
2023-01-05T22:37:47.445Z,20.50
2023-01-05T22:40:16.336Z,20.50
2023-01-05T22:42:45.199Z,20.50
2023-01-05T22:45:14.166Z,20.60
2023-01-05T22:47:42.837Z,20.60
2023-01-05T22:50:11.679Z,20.60
2023-01-05T22:52:40.526Z,20.50
2023-01-05T22:55:09.848Z,20.50
2023-01-05T22:57:38.556Z,20.40
2023-01-05T23:00:09.449Z,20.40
2023-01-05T23:02:38.330Z,20.30
2023-01-05T23:05:10.601Z,20.30
2023-01-05T23:07:39.410Z,20.20
2023-01-05T23:10:08.751Z,20.20
2023-01-05T23:12:38.448Z,20.20
2023-01-05T23:15:07.662Z,20.20
2023-01-05T23:17:36.384Z,20.20
2023-01-05T23:20:05.342Z,20.20
2023-01-05T23:22:34.154Z,20.20
2023-01-05T23:25:02.989Z,20.20
2023-01-05T23:27:31.777Z,20.20
2023-01-05T23:30:00.567Z,20.20
2023-01-05T23:32:29.366Z,20.20
2023-01-05T23:34:58.108Z,20.20
2023-01-05T23:37:26.907Z,20.20
2023-01-05T23:39:55.680Z,20.20
2023-01-05T23:42:44.082Z,20.20
2023-01-05T23:45:13.112Z,20.20
2023-01-05T23:47:41.959Z,20.20
2023-01-05T23:50:11.199Z,20.20
2023-01-05T23:52:40.083Z,20.20
2023-01-05T23:55:09.542Z,20.10
2023-01-05T23:57:38.408Z,20.10
